Time;durP1;ratioP1;P1;durP2;ratioP2;P2;SDS_P1;SDS_P2;PMS_P1;PMS_P2;Temp;Humidity;BMP_temperature;BMP_pressure;BME280_temperature;BME280_humidity;BME280_pressure;Samples;Min_cycle;Max_cycle;Signal;HPM_P1;HPM_P2
2022/09/20 00:02:38;;;;;;;4.95;3.05;;;11.30;99.90;;;;;;5030784;28;20398;-51
2022/09/20 00:05:23;;;;;;;3.58;2.60;;;11.20;99.90;;;;;;5030255;28;20494;-52
2022/09/20 00:08:12;;;;;;;6.80;2.80;;;11.20;99.90;;;;;;5030415;28;20506;-50
2022/09/20 00:11:05;;;;;;;11.60;3.13;;;11.10;99.90;;;;;;4997801;28;20037;-55
2022/09/20 00:13:53;;;;;;;4.88;3.28;;;11.00;99.90;;;;;;5014515;28;20040;-59
2022/09/20 00:16:40;;;;;;;9.27;3.35;;;10.90;99.90;;;;;;5030507;28;20490;-52
2022/09/20 00:19:26;;;;;;;14.48;6.00;;;10.90;99.90;;;;;;5030694;28;20029;-52
2022/09/20 00:22:12;;;;;;;6.00;3.15;;;10.90;99.90;;;;;;5030664;28;20036;-55
2022/09/20 00:24:58;;;;;;;5.78;3.53;;;10.70;99.90;;;;;;5030265;28;20040;-51
2022/09/20 00:27:45;;;;;;;5.20;3.10;;;10.70;99.90;;;;;;5017123;28;20060;-56
2022/09/20 00:30:34;;;;;;;7.88;3.30;;;10.70;99.90;;;;;;4997230;28;20034;-52
2022/09/20 00:33:22;;;;;;;7.13;3.25;;;10.80;99.90;;;;;;4999202;28;22101;-49
2022/09/20 00:36:08;;;;;;;6.10;3.25;;;10.80;99.90;;;;;;5030290;28;20034;-52
2022/09/20 00:38:55;;;;;;;6.35;3.20;;;10.80;99.90;;;;;;5029868;28;20029;-55
2022/09/20 00:41:42;;;;;;;6.82;3.30;;;10.80;99.90;;;;;;5016628;28;20489;-58
2022/09/20 00:44:42;;;;;;;5.50;3.30;;;10.80;99.90;;;;;;5031284;28;20512;-52
2022/09/20 00:47:40;;;;;;;5.90;3.45;;;10.80;99.90;;;;;;5030493;28;20033;-52
2022/09/20 00:50:41;;;;;;;6.53;3.78;;;10.70;99.90;;;;;;5030266;28;20095;-58
2022/09/20 00:53:36;;;;;;;8.88;3.70;;;10.70;99.90;;;;;;5029404;28;20021;-49
2022/09/20 00:56:43;;;;;;;9.50;3.70;;;10.60;99.90;;;;;;5028769;28;20081;-53
2022/09/20 00:59:33;;;;;;;9.02;3.88;;;10.60;99.90;;;;;;5010749;28;20037;-54
2022/09/20 01:02:28;;;;;;;5.88;3.85;;;10.60;99.90;;;;;;5018412;28;20025;-52
2022/09/20 01:05:18;;;;;;;9.27;3.92;;;10.60;99.90;;;;;;5031141;28;20022;-56
2022/09/20 01:08:05;;;;;;;7.45;3.78;;;10.60;99.90;;;;;;5017468;28;20030;-52
2022/09/20 01:10:52;;;;;;;10.50;3.80;;;10.60;99.90;;;;;;5010324;28;20041;-52
2022/09/20 01:13:38;;;;;;;8.00;3.50;;;10.50;99.90;;;;;;5028309;28;20076;-49
2022/09/20 01:16:29;;;;;;;9.43;4.13;;;10.40;99.90;;;;;;5029443;28;20117;-51
2022/09/20 01:19:59;;;;;;;9.07;3.67;;;10.30;99.90;;;;;;5010916;28;20096;-58
2022/09/20 01:22:50;;;;;;;9.95;3.97;;;10.20;99.90;;;;;;5028697;28;20113;-51
2022/09/20 01:26:08;;;;;;;5.60;3.55;;;10.30;99.90;;;;;;5029690;28;20025;-50
2022/09/20 01:29:22;;;;;;;8.13;4.13;;;10.30;99.90;;;;;;5029861;28;20053;-51
2022/09/20 01:32:12;;;;;;;6.50;3.95;;;10.30;99.90;;;;;;5028721;28;20075;-49
2022/09/20 01:35:00;;;;;;;9.50;4.00;;;10.40;99.90;;;;;;5030886;28;20026;-51
2022/09/20 01:37:55;;;;;;;7.88;3.10;;;10.50;99.90;;;;;;5029251;28;20569;-53
2022/09/20 01:41:00;;;;;;;;;;;10.50;99.90;;;;;;5028245;28;20042;-49
2022/09/20 01:43:57;;;;;;;7.80;3.72;;;10.40;99.90;;;;;;5011138;28;19912;-53
2022/09/20 01:46:48;;;;;;;8.40;3.80;;;10.50;99.90;;;;;;5010062;28;20026;-56
2022/09/20 01:49:49;;;;;;;9.55;3.83;;;10.40;99.90;;;;;;5009807;28;20029;-55
2022/09/20 01:52:41;;;;;;;6.18;3.50;;;10.30;99.90;;;;;;5025497;28;20040;-51
2022/09/20 01:55:27;;;;;;;8.85;3.40;;;10.40;99.90;;;;;;5028856;28;20037;-52
2022/09/20 01:58:31;;;;;;;17.50;4.35;;;10.30;99.90;;;;;;5029510;28;20497;-54
2022/09/20 02:01:20;;;;;;;8.88;3.25;;;10.10;99.90;;;;;;5026387;28;20057;-50
2022/09/20 02:04:15;;;;;;;11.25;3.25;;;10.10;99.90;;;;;;5029333;28;20021;-52
2022/09/20 02:07:09;;;;;;;7.05;3.50;;;10.10;99.90;;;;;;5028453;28;20505;-56
2022/09/20 02:10:04;;;;;;;11.45;4.00;;;10.20;99.90;;;;;;5029078;28;20029;-56
2022/09/20 02:12:53;;;;;;;8.40;3.45;;;10.10;99.90;;;;;;5010745;28;20022;-56
2022/09/20 02:16:07;;;;;;;9.13;3.42;;;10.10;99.90;;;;;;5015623;28;20029;-57
2022/09/20 02:19:02;;;;;;;9.88;3.70;;;10.20;99.90;;;;;;5028861;28;20026;-55
2022/09/20 02:22:06;;;;;;;8.50;3.45;;;10.00;99.90;;;;;;5028348;28;20037;-51
2022/09/20 02:25:13;;;;;;;7.50;2.75;;;10.00;99.90;;;;;;5029299;28;20083;-49
2022/09/20 02:28:48;;;;;;;9.60;3.20;;;10.20;99.90;;;;;;5009855;28;20022;-53
2022/09/20 02:32:15;;;;;;;8.15;3.60;;;10.20;99.90;;;;;;4964158;28;20027;-53
2022/09/20 02:35:15;;;;;;;9.68;3.08;;;10.30;99.90;;;;;;5018401;28;20037;-51
2022/09/20 02:38:20;;;;;;;6.28;3.88;;;10.20;99.90;;;;;;5032179;28;20025;-55
2022/09/20 02:41:30;;;;;;;7.80;3.30;;;10.10;99.90;;;;;;5031076;28;20029;-55
2022/09/20 02:44:43;;;;;;;6.85;3.40;;;9.90;99.90;;;;;;5032090;28;20032;-51
2022/09/20 02:47:36;;;;;;;9.10;4.10;;;9.90;99.90;;;;;;5032366;28;20029;-51
2022/09/20 02:51:05;;;;;;;7.28;3.30;;;9.80;99.90;;;;;;5028518;28;20029;-54
2022/09/20 02:54:25;;;;;;;12.38;3.35;;;9.90;99.90;;;;;;5017966;28;20025;-54
2022/09/20 02:57:23;;;;;;;10.88;3.70;;;9.90;99.90;;;;;;5032940;28;20033;-52
2022/09/20 03:00:24;;;;;;;11.40;3.92;;;9.90;99.90;;;;;;5030974;28;20022;-57
2022/09/20 03:03:42;;;;;;;9.80;3.70;;;9.90;99.90;;;;;;5031625;28;20034;-51
2022/09/20 03:07:04;;;;;;;6.32;3.33;;;9.90;99.90;;;;;;5031838;28;20025;-54
2022/09/20 03:10:05;;;;;;;9.88;4.00;;;10.00;99.90;;;;;;5010975;28;20116;-52
2022/09/20 03:13:06;;;;;;;10.52;3.78;;;10.10;99.90;;;;;;5013051;28;20026;-57
2022/09/20 03:16:32;;;;;;;9.02;3.47;;;10.00;99.90;;;;;;5013383;28;20026;-52
2022/09/20 03:19:59;;;;;;;9.30;4.03;;;9.90;99.90;;;;;;4999640;28;20437;-56
2022/09/20 03:23:10;;;;;;;9.88;3.55;;;10.00;99.90;;;;;;5009403;28;20029;-50
2022/09/20 03:26:20;;;;;;;8.23;4.35;;;10.10;99.90;;;;;;5012557;28;20412;-53
2022/09/20 03:29:18;;;;;;;8.27;4.00;;;10.00;99.90;;;;;;5028992;28;20052;-50
2022/09/20 03:32:26;;;;;;;10.65;4.53;;;10.10;99.90;;;;;;5030064;28;20033;-51
2022/09/20 03:35:44;;;;;;;7.72;3.70;;;10.00;99.90;;;;;;5031439;28;20061;-51
2022/09/20 03:38:47;;;;;;;15.93;4.82;;;9.80;99.90;;;;;;5032819;28;20026;-50
2022/09/20 03:41:33;;;;;;;10.13;4.55;;;9.70;99.90;;;;;;5017829;28;20049;-55
2022/09/20 03:44:38;;;;;;;11.32;4.85;;;9.70;99.90;;;;;;5023468;28;20108;-51
2022/09/20 03:48:00;;;;;;;10.68;4.45;;;9.60;99.90;;;;;;5037716;28;20022;-50
2022/09/20 03:51:08;;;;;;;9.98;4.75;;;9.50;99.90;;;;;;5023692;28;20018;-53
2022/09/20 03:54:19;;;;;;;15.52;5.25;;;9.50;99.90;;;;;;5018839;28;20036;-54
2022/09/20 03:57:41;;;;;;;15.20;5.63;;;9.60;99.90;;;;;;5034426;28;20029;-49
2022/09/20 04:00:55;;;;;;;9.88;4.38;;;9.60;99.90;;;;;;5026667;28;20072;-49
2022/09/20 04:04:10;;;;;;;10.68;4.57;;;9.70;99.90;;;;;;5012055;28;20498;-54
2022/09/20 04:07:04;;;;;;;13.87;4.63;;;9.70;99.90;;;;;;5011985;28;20030;-50
2022/09/20 04:10:27;;;;;;;12.35;4.13;;;9.70;99.90;;;;;;5017859;28;20620;-55
2022/09/20 04:13:37;;;;;;;14.23;6.78;;;9.60;99.90;;;;;;5029988;28;20112;-55
2022/09/20 04:16:40;;;;;;;8.23;4.68;;;9.70;99.90;;;;;;5031432;28;20021;-57
2022/09/20 04:19:51;;;;;;;14.10;4.85;;;9.70;99.90;;;;;;5029937;28;20021;-59
2022/09/20 04:22:39;;;;;;;14.88;5.88;;;9.60;99.90;;;;;;5029816;28;20022;-55
2022/09/20 04:25:36;;;;;;;11.13;4.40;;;9.60;99.90;;;;;;5030367;28;20029;-55
2022/09/20 04:28:40;;;;;;;7.78;4.07;;;9.50;99.90;;;;;;5031046;28;20033;-56
2022/09/20 04:31:49;;;;;;;12.30;4.35;;;9.70;99.90;;;;;;5019455;28;20022;-52
2022/09/20 04:37:53;;;;;;;10.88;4.60;;;9.90;99.90;;;;;;5027724;28;20105;-53
2022/09/20 04:41:15;;;;;;;7.78;4.13;;;9.80;99.90;;;;;;5028760;28;20026;-55
2022/09/20 04:44:08;;;;;;;11.98;5.53;;;10.10;99.90;;;;;;5011541;28;20026;-50
2022/09/20 04:47:20;;;;;;;10.32;5.28;;;10.20;99.90;;;;;;5013059;28;20132;-52
2022/09/20 04:50:15;;;;;;;10.30;5.53;;;10.30;99.90;;;;;;5029510;28;20021;-56
2022/09/20 04:53:36;;;;;;;10.77;5.07;;;10.20;99.90;;;;;;5029211;28;20029;-55
2022/09/20 04:56:34;;;;;;;9.27;4.53;;;10.20;99.90;;;;;;5030792;28;20503;-53
2022/09/20 04:59:48;;;;;;;9.63;4.25;;;10.20;99.90;;;;;;5018153;28;20029;-56
2022/09/20 05:03:12;;;;;;;11.57;4.10;;;10.40;99.90;;;;;;5029856;28;20032;-55
2022/09/20 05:06:22;;;;;;;10.90;4.35;;;10.40;99.90;;;;;;4985300;28;20379;-55
2022/09/20 05:09:39;;;;;;;11.23;4.35;;;10.50;99.90;;;;;;5012263;28;20029;-54
2022/09/20 05:12:53;;;;;;;11.32;4.50;;;10.50;99.90;;;;;;5029422;28;20276;-54
2022/09/20 05:15:56;;;;;;;8.73;5.15;;;10.40;99.90;;;;;;5030486;28;20051;-55
2022/09/20 05:19:23;;;;;;;10.30;4.43;;;10.30;99.90;;;;;;5029799;28;20029;-57
2022/09/20 05:22:47;;;;;;;8.50;4.15;;;10.10;99.90;;;;;;5009742;28;20040;-54
2022/09/20 05:25:55;;;;;;;15.68;4.60;;;10.10;99.90;;;;;;4996159;28;20042;-53
2022/09/20 05:28:52;;;;;;;11.20;4.40;;;10.00;99.90;;;;;;5023932;28;20025;-49
2022/09/20 05:31:47;;;;;;;8.95;4.78;;;10.20;99.90;;;;;;5024248;28;20030;-50
2022/09/20 05:34:44;;;;;;;9.55;4.00;;;10.10;99.90;;;;;;5029223;28;20485;-53
2022/09/20 05:38:22;;;;;;;8.15;4.32;;;10.10;99.90;;;;;;5029039;28;20045;-52
2022/09/20 05:41:41;;;;;;;12.52;4.85;;;10.30;99.90;;;;;;5025093;28;20057;-57
2022/09/20 05:44:46;;;;;;;12.07;4.68;;;10.20;99.90;;;;;;5031007;28;20033;-55
2022/09/20 05:47:38;;;;;;;12.40;4.30;;;10.20;99.90;;;;;;5029783;28;20087;-58
2022/09/20 05:50:52;;;;;;;13.52;4.75;;;10.20;99.90;;;;;;5016087;28;20029;-55
2022/09/20 05:54:16;;;;;;;13.32;6.25;;;10.30;99.90;;;;;;5030593;28;20029;-56
2022/09/20 05:57:30;;;;;;;12.65;5.68;;;10.30;99.90;;;;;;5010161;28;20041;-57
2022/09/20 06:00:21;;;;;;;9.95;5.07;;;10.30;99.90;;;;;;5020016;28;20085;-55
2022/09/20 06:03:13;;;;;;;12.82;4.63;;;10.40;99.90;;;;;;5029605;28;20076;-55
2022/09/20 06:06:09;;;;;;;10.20;4.57;;;10.40;99.90;;;;;;5016242;28;20040;-54
2022/09/20 06:09:19;;;;;;;10.07;4.82;;;10.40;99.90;;;;;;5032703;28;20029;-54
2022/09/20 06:12:24;;;;;;;11.45;5.68;;;10.30;99.90;;;;;;5032532;28;20532;-55
2022/09/20 06:15:18;;;;;;;16.50;5.72;;;10.30;99.90;;;;;;5001042;28;20037;-55
2022/09/20 06:18:10;;;;;;;14.88;6.82;;;10.40;99.90;;;;;;5033578;28;20036;-58
2022/09/20 06:21:09;;;;;;;8.43;4.78;;;10.20;99.90;;;;;;5032547;28;20640;-57
2022/09/20 06:24:00;;;;;;;8.63;4.95;;;10.30;99.90;;;;;;5026170;28;20068;-58
2022/09/20 06:26:48;;;;;;;11.70;4.57;;;10.50;99.90;;;;;;5014723;28;20029;-55
2022/09/20 06:29:39;;;;;;;17.42;7.18;;;10.50;99.90;;;;;;5027437;28;20034;-57
2022/09/20 06:32:25;;;;;;;14.48;5.72;;;10.60;99.90;;;;;;5013799;28;20045;-56
2022/09/20 06:35:11;;;;;;;16.17;7.25;;;10.70;99.90;;;;;;5031280;28;20073;-57
2022/09/20 06:41:29;;;;;;;13.15;5.57;;;10.50;99.90;;;;;;5022822;28;20042;-54
2022/09/20 06:44:15;;;;;;;10.70;5.95;;;10.50;99.90;;;;;;5032784;28;20033;-54
2022/09/20 06:47:02;;;;;;;12.10;5.43;;;10.50;99.90;;;;;;5019688;28;20035;-56
2022/09/20 06:49:49;;;;;;;12.82;5.65;;;10.70;99.90;;;;;;5033218;28;20064;-55
2022/09/20 06:52:35;;;;;;;11.77;5.63;;;10.80;99.90;;;;;;5032224;28;20060;-57
2022/09/20 06:55:28;;;;;;;11.95;5.80;;;10.90;99.90;;;;;;5032681;28;20056;-58
2022/09/20 06:58:14;;;;;;;19.25;7.15;;;11.10;99.90;;;;;;5033811;28;20022;-51
2022/09/20 07:01:00;;;;;;;11.98;5.60;;;11.10;99.90;;;;;;5018922;28;20037;-54
2022/09/20 07:03:47;;;;;;;11.77;6.28;;;11.30;99.90;;;;;;5025474;28;20045;-51
2022/09/20 07:06:32;;;;;;;14.80;7.07;;;11.40;99.90;;;;;;5030383;28;20026;-50
2022/09/20 07:09:18;;;;;;;16.20;7.38;;;11.60;99.90;;;;;;5032269;28;20026;-53
2022/09/20 07:12:10;;;;;;;18.00;7.82;;;11.60;99.90;;;;;;5026988;28;20032;-55
2022/09/20 07:14:56;;;;;;;16.15;7.13;;;11.60;99.90;;;;;;5027705;28;20036;-51
2022/09/20 07:17:46;;;;;;;11.75;7.00;;;11.60;99.90;;;;;;5023158;28;20036;-55
2022/09/20 07:20:32;;;;;;;15.95;8.00;;;11.60;99.90;;;;;;5027751;28;20611;-55
2022/09/20 07:23:18;;;;;;;16.23;8.88;;;11.60;99.90;;;;;;5026544;28;20032;-56
2022/09/20 07:26:05;;;;;;;20.65;9.23;;;11.50;99.90;;;;;;5023760;28;20022;-53
2022/09/20 07:28:52;;;;;;;15.63;8.65;;;11.70;99.90;;;;;;5024683;28;20034;-48
2022/09/20 07:31:38;;;;;;;16.98;9.43;;;11.70;99.90;;;;;;5025006;28;20026;-56
2022/09/20 07:34:24;;;;;;;19.73;9.77;;;11.80;99.90;;;;;;5029915;28;20128;-55
2022/09/20 07:37:10;;;;;;;19.92;10.13;;;11.90;99.90;;;;;;5029061;28;20370;-52
2022/09/20 07:39:56;;;;;;;24.75;10.73;;;12.00;99.90;;;;;;5023648;28;20444;-56
2022/09/20 07:42:44;;;;;;;17.55;10.80;;;12.00;99.90;;;;;;5022529;28;20030;-54
2022/09/20 07:45:34;;;;;;;21.13;10.57;;;12.10;99.90;;;;;;5012216;28;20105;-53
2022/09/20 07:48:32;;;;;;;18.90;10.23;;;12.10;99.90;;;;;;5012773;28;20018;-54
2022/09/20 07:51:18;;;;;;;27.67;11.25;;;12.20;99.90;;;;;;5024110;28;20022;-51
2022/09/20 07:54:04;;;;;;;16.80;9.65;;;12.10;99.90;;;;;;5017937;28;20026;-55
2022/09/20 07:57:02;;;;;;;16.90;10.63;;;12.10;99.90;;;;;;5280597;22;20140;-56
2022/09/20 07:59:47;;;;;;;17.13;9.27;;;12.20;99.90;;;;;;5035369;28;20120;-53
2022/09/20 08:02:34;;;;;;;15.38;8.95;;;12.10;99.90;;;;;;5030440;28;20048;-56
2022/09/20 08:05:20;;;;;;;20.95;10.02;;;12.30;99.90;;;;;;5039342;28;20187;-52
2022/09/20 08:08:06;;;;;;;18.58;10.10;;;12.30;99.90;;;;;;5020492;28;20018;-52
2022/09/20 08:10:54;;;;;;;15.68;9.80;;;12.40;99.90;;;;;;5003251;28;20036;-51
2022/09/20 08:13:46;;;;;;;18.45;11.15;;;12.50;99.90;;;;;;5017396;28;20022;-48
2022/09/20 08:16:41;;;;;;;16.63;10.18;;;12.30;99.90;;;;;;4987443;28;20046;-51
2022/09/20 08:19:27;;;;;;;18.42;11.38;;;12.20;99.90;;;;;;5002736;28;20030;-55
2022/09/20 08:22:13;;;;;;;16.27;10.95;;;12.30;99.90;;;;;;5003676;28;20120;-56
2022/09/20 08:24:59;;;;;;;14.55;9.63;;;12.60;99.90;;;;;;4987980;28;20025;-54
2022/09/20 08:27:52;;;;;;;21.98;10.35;;;12.60;99.90;;;;;;5008957;28;20027;-53
2022/09/20 08:30:38;;;;;;;19.75;10.75;;;12.60;99.90;;;;;;5013176;28;20390;-53
2022/09/20 08:33:26;;;;;;;19.13;10.82;;;12.60;99.90;;;;;;5010116;28;20449;-50
2022/09/20 08:36:15;;;;;;;17.05;10.43;;;12.60;99.90;;;;;;5015286;28;20053;-56
2022/09/20 08:39:01;;;;;;;19.85;10.35;;;12.60;99.90;;;;;;5019772;28;20029;-54
2022/09/20 08:41:55;;;;;;;17.20;10.90;;;12.60;99.90;;;;;;5010370;28;20089;-59
2022/09/20 08:44:51;;;;;;;18.92;10.73;;;12.60;99.90;;;;;;5018905;28;20033;-54
2022/09/20 08:47:47;;;;;;;19.55;11.25;;;12.80;99.90;;;;;;5012214;28;20045;-54
2022/09/20 08:50:35;;;;;;;18.55;11.15;;;12.90;99.90;;;;;;4997011;28;20028;-56
2022/09/20 08:53:21;;;;;;;17.05;10.23;;;12.80;99.90;;;;;;4997214;28;20493;-57
2022/09/20 08:56:08;;;;;;;15.05;9.85;;;12.80;99.90;;;;;;4996624;28;20042;-56
2022/09/20 08:58:55;;;;;;;16.90;11.43;;;12.60;99.90;;;;;;5012077;28;20060;-56
2022/09/20 09:01:42;;;;;;;16.05;11.13;;;12.70;99.90;;;;;;5010521;28;20066;-57
2022/09/20 09:04:35;;;;;;;22.30;10.98;;;13.00;99.90;;;;;;4997102;28;20026;-56
2022/09/20 09:07:22;;;;;;;20.13;11.88;;;12.90;99.90;;;;;;4997412;28;20029;-56
2022/09/20 09:10:09;;;;;;;18.75;10.00;;;13.10;99.90;;;;;;4997877;28;20041;-52
2022/09/20 09:12:56;;;;;;;19.23;10.82;;;13.30;99.90;;;;;;5007538;28;20027;-56
2022/09/20 09:15:45;;;;;;;18.13;11.57;;;13.10;99.90;;;;;;5010693;28;20025;-54
2022/09/20 09:18:37;;;;;;;21.45;12.45;;;12.90;99.90;;;;;;5011221;28;20022;-56
2022/09/20 09:21:28;;;;;;;19.33;11.95;;;12.80;99.90;;;;;;5006098;28;20026;-56
2022/09/20 09:24:18;;;;;;;21.50;11.13;;;12.80;99.90;;;;;;5001278;28;20026;-55
2022/09/20 09:27:12;;;;;;;17.48;11.50;;;12.80;99.90;;;;;;5002858;28;20080;-55
2022/09/20 09:29:58;;;;;;;18.50;11.25;;;12.90;99.90;;;;;;4992790;28;20034;-52
2022/09/20 09:32:44;;;;;;;17.65;10.90;;;12.90;99.90;;;;;;4977273;28;20037;-55
2022/09/20 09:35:30;;;;;;;20.90;12.48;;;12.80;99.90;;;;;;4987789;28;20038;-56
2022/09/20 09:38:20;;;;;;;19.17;10.65;;;12.90;99.90;;;;;;4996774;28;20117;-52
2022/09/20 09:41:34;;;;;;;15.88;9.75;;;12.90;99.90;;;;;;5002550;28;20029;-54
2022/09/20 09:44:29;;;;;;;10.80;8.60;;;13.00;99.90;;;;;;5001215;28;20030;-59
2022/09/20 09:47:27;;;;;;;16.43;10.77;;;13.20;99.90;;;;;;5018494;28;20517;-55
2022/09/20 09:50:23;;;;;;;16.02;10.63;;;13.20;99.90;;;;;;5018587;28;20296;-59
2022/09/20 09:53:14;;;;;;;18.65;10.13;;;13.40;99.90;;;;;;5008506;28;20128;-54
2022/09/20 09:56:16;;;;;;;15.00;9.88;;;13.50;99.90;;;;;;4996086;28;20035;-56
2022/09/20 09:59:21;;;;;;;18.33;10.95;;;13.70;99.90;;;;;;4982839;28;20026;-58
2022/09/20 10:02:34;;;;;;;18.77;10.25;;;13.80;99.90;;;;;;4994511;28;20018;-55
2022/09/20 10:05:28;;;;;;;17.40;10.00;;;13.70;99.90;;;;;;5014317;28;20393;-59
2022/09/20 10:08:34;;;;;;;10.70;8.90;;;13.80;99.90;;;;;;4992976;28;20057;-57
2022/09/20 10:11:32;;;;;;;15.85;9.60;;;13.80;99.90;;;;;;4994808;28;20517;-55
2022/09/20 10:14:35;;;;;;;16.10;9.75;;;13.90;99.90;;;;;;5012524;28;20053;-57
2022/09/20 10:17:54;;;;;;;14.95;8.55;;;14.00;99.90;;;;;;5015090;28;20026;-57
2022/09/20 10:20:52;;;;;;;13.68;9.07;;;13.80;99.90;;;;;;4976920;28;20041;-57
2022/09/20 10:24:03;;;;;;;11.10;8.68;;;13.80;99.90;;;;;;5012415;28;20065;-57
2022/09/20 10:26:55;;;;;;;16.35;9.00;;;14.10;99.90;;;;;;5014324;28;20030;-56
2022/09/20 10:30:02;;;;;;;12.68;8.85;;;14.40;99.80;;;;;;4990853;28;20603;-56
2022/09/20 10:33:00;;;;;;;15.55;8.68;;;14.50;99.70;;;;;;5014079;28;20032;-55
2022/09/20 10:36:15;;;;;;;12.32;8.75;;;14.20;99.90;;;;;;5015147;28;20568;-55
2022/09/20 10:39:32;;;;;;;14.35;8.50;;;14.10;99.90;;;;;;5012007;28;20029;-50
2022/09/20 10:46:16;;;;;;;14.10;8.15;;;14.50;99.40;;;;;;5014163;28;20018;-55
2022/09/20 10:49:25;;;;;;;13.20;7.78;;;14.40;99.10;;;;;;5015705;28;20034;-54
2022/09/20 10:52:53;;;;;;;9.55;7.53;;;14.50;99.40;;;;;;4998102;28;20038;-55
2022/09/20 10:55:58;;;;;;;10.05;6.95;;;14.40;99.00;;;;;;5014212;28;20053;-56
2022/09/20 10:58:55;;;;;;;8.00;6.15;;;14.20;98.70;;;;;;5014462;28;20037;-55
2022/09/20 11:02:17;;;;;;;10.18;6.10;;;13.80;99.10;;;;;;5013827;28;20022;-53
2022/09/20 11:05:23;;;;;;;12.65;6.75;;;14.30;98.40;;;;;;5015040;28;20485;-51
2022/09/20 11:08:17;;;;;;;;;;;14.70;98.00;;;;;;5013810;28;20709;-53
2022/09/20 11:11:15;;;;;;;9.20;6.32;;;14.90;98.10;;;;;;5012911;28;19976;-55
2022/09/20 11:14:32;;;;;;;13.38;7.10;;;15.40;97.80;;;;;;5013178;28;20497;-57
2022/09/20 11:17:30;;;;;;;10.98;6.13;;;15.20;97.70;;;;;;5013529;28;20025;-55
2022/09/20 11:20:39;;;;;;;9.35;6.20;;;14.80;97.70;;;;;;5012929;28;20033;-54
2022/09/20 11:23:59;;;;;;;6.85;5.43;;;15.00;97.90;;;;;;5013544;28;20056;-56
2022/09/20 11:26:52;;;;;;;11.00;7.63;;;14.80;97.30;;;;;;5018426;28;20026;-56
2022/09/20 11:29:57;;;;;;;11.20;7.65;;;14.90;98.40;;;;;;5013832;28;20022;-59
2022/09/20 11:32:54;;;;;;;9.70;7.13;;;14.60;98.60;;;;;;5013327;28;20025;-55
2022/09/20 11:36:00;;;;;;;8.10;6.13;;;14.40;98.90;;;;;;5013269;28;20030;-57
2022/09/20 11:39:01;;;;;;;9.10;5.90;;;14.40;98.10;;;;;;5012092;28;20038;-54
2022/09/20 11:41:51;;;;;;;8.93;5.00;;;14.70;98.20;;;;;;5012018;28;20517;-56
2022/09/20 11:44:39;;;;;;;8.63;4.90;;;15.10;97.60;;;;;;5013162;28;20021;-58
2022/09/20 11:47:42;;;;;;;10.18;4.60;;;15.40;96.70;;;;;;5012393;28;20034;-54
2022/09/20 11:50:37;;;;;;;7.15;5.18;;;15.50;96.60;;;;;;5011193;28;20030;-54
2022/09/20 11:53:48;;;;;;;10.00;5.05;;;15.40;96.70;;;;;;5012038;28;20034;-54
2022/09/20 11:56:34;;;;;;;10.75;5.18;;;15.10;97.30;;;;;;5012372;28;20091;-53
2022/09/20 11:59:33;;;;;;;7.72;5.03;;;14.80;97.90;;;;;;4998807;28;20030;-56
2022/09/20 12:02:33;;;;;;;5.97;4.10;;;14.70;97.50;;;;;;4997247;28;20056;-56
2022/09/20 12:05:36;;;;;;;7.63;4.70;;;14.70;97.50;;;;;;5011033;28;20026;-57
2022/09/20 12:08:36;;;;;;;7.35;5.32;;;15.00;97.50;;;;;;5011815;28;20025;-55
2022/09/20 12:11:31;;;;;;;9.52;5.50;;;15.20;97.20;;;;;;5011646;28;20022;-58
2022/09/20 12:14:21;;;;;;;7.88;4.72;;;15.40;97.40;;;;;;5012017;28;20053;-54
2022/09/20 12:17:45;;;;;;;8.63;4.97;;;15.30;96.90;;;;;;4997764;28;20509;-55
2022/09/20 12:20:34;;;;;;;9.48;4.00;;;15.00;97.30;;;;;;5012913;28;20398;-56
2022/09/20 12:23:41;;;;;;;6.43;4.20;;;15.00;95.90;;;;;;5011473;28;20574;-55
2022/09/20 12:26:27;;;;;;;5.75;3.67;;;15.00;96.20;;;;;;5012402;28;20025;-57
2022/09/20 12:29:22;;;;;;;4.50;3.33;;;15.30;96.10;;;;;;5012360;28;20018;-55
2022/09/20 12:32:28;;;;;;;;;;;15.80;95.60;;;;;;5011969;28;20044;-55
2022/09/20 12:35:37;;;;;;;5.53;3.60;;;15.80;95.20;;;;;;5011888;28;20432;-57
2022/09/20 12:38:30;;;;;;;6.75;3.75;;;15.70;94.90;;;;;;5011610;28;20057;-53
2022/09/20 12:41:18;;;;;;;6.55;3.47;;;15.90;94.70;;;;;;5011046;28;20027;-54
2022/09/20 12:44:21;;;;;;;6.32;3.35;;;15.90;95.10;;;;;;5011746;28;20076;-54
2022/09/20 12:47:10;;;;;;;5.45;3.30;;;15.80;94.20;;;;;;5010435;28;20022;-58
2022/09/20 12:53:16;;;;;;;5.20;3.60;;;15.50;95.00;;;;;;5011154;28;20030;-55
2022/09/20 12:56:02;;;;;;;5.78;4.05;;;15.70;94.90;;;;;;4996912;28;20095;-55
2022/09/20 12:58:53;;;;;;;4.38;3.67;;;15.70;94.90;;;;;;5010623;28;20417;-55
2022/09/20 13:01:39;;;;;;;3.83;2.85;;;16.00;94.90;;;;;;4996304;28;20037;-56
2022/09/20 13:04:53;;;;;;;3.35;2.47;;;15.90;92.80;;;;;;5011103;28;20030;-52
2022/09/20 13:07:45;;;;;;;6.05;2.80;;;16.00;92.50;;;;;;5004374;28;20033;-58
2022/09/20 13:10:36;;;;;;;8.13;3.13;;;16.10;92.80;;;;;;5005067;28;20034;-66
2022/09/20 13:13:31;;;;;;;3.65;2.90;;;16.00;93.40;;;;;;4991818;28;20035;-57
2022/09/20 13:16:38;;;;;;;5.70;3.40;;;16.20;93.60;;;;;;5002535;28;20038;-55
2022/09/20 13:19:31;;;;;;;5.75;3.25;;;16.30;93.90;;;;;;5006168;28;20644;-57
2022/09/20 13:22:23;;;;;;;5.28;3.47;;;16.50;93.50;;;;;;5004978;28;20034;-57
2022/09/20 13:25:14;;;;;;;4.63;3.22;;;16.90;92.80;;;;;;5006097;28;20609;-56
2022/09/20 13:28:12;;;;;;;6.07;3.33;;;17.10;91.80;;;;;;4993332;28;20031;-54
2022/09/20 13:31:20;;;;;;;6.53;3.20;;;16.70;92.00;;;;;;4994282;28;20030;-55
2022/09/20 13:34:24;;;;;;;4.88;3.70;;;16.70;92.60;;;;;;4995373;28;20019;-58
2022/09/20 13:37:20;;;;;;;4.80;3.25;;;17.00;91.80;;;;;;4993281;28;20026;-54
2022/09/20 13:40:34;;;;;;;5.90;3.25;;;17.20;91.10;;;;;;4993225;28;20088;-55
2022/09/20 13:43:28;;;;;;;3.45;2.58;;;17.50;90.70;;;;;;4999869;28;20508;-52
2022/09/20 13:46:21;;;;;;;3.75;2.80;;;17.60;87.90;;;;;;5002254;28;20084;-56
2022/09/20 13:49:14;;;;;;;5.15;2.92;;;17.20;87.70;;;;;;5009131;28;20058;-58
2022/09/20 13:52:20;;;;;;;4.47;3.08;;;17.30;89.70;;;;;;4994212;28;20505;-54
2022/09/20 13:55:31;;;;;;;4.18;2.40;;;17.20;88.20;;;;;;4994753;28;20106;-57
2022/09/20 13:58:23;;;;;;;4.05;2.60;;;17.50;87.90;;;;;;5001362;28;20065;-61
2022/09/20 14:01:31;;;;;;;6.13;3.45;;;17.50;88.30;;;;;;5009603;28;20117;-58
2022/09/20 14:04:22;;;;;;;5.18;2.95;;;17.80;87.90;;;;;;4993178;28;20053;-57
2022/09/20 14:07:09;;;;;;;6.35;3.20;;;17.70;89.30;;;;;;4995086;28;20052;-58
2022/09/20 14:09:59;;;;;;;4.57;2.85;;;17.80;90.10;;;;;;4994455;28;20084;-59
2022/09/20 14:12:51;;;;;;;4.55;3.10;;;17.80;89.20;;;;;;4996665;28;20025;-56
2022/09/20 14:15:43;;;;;;;4.78;2.80;;;17.40;89.40;;;;;;4997905;28;20033;-59
2022/09/20 14:18:30;;;;;;;3.92;2.83;;;17.20;89.10;;;;;;5006871;28;20026;-57
2022/09/20 14:21:27;;;;;;;3.30;2.47;;;17.30;88.90;;;;;;5009596;28;20042;-59
2022/09/20 14:24:25;;;;;;;3.03;2.58;;;17.10;86.80;;;;;;5005450;28;20088;-55
2022/09/20 14:27:17;;;;;;;3.63;2.80;;;16.90;87.60;;;;;;5000936;28;20432;-56
2022/09/20 14:30:05;;;;;;;3.92;2.70;;;16.70;89.10;;;;;;4995978;28;20026;-57
2022/09/20 14:32:55;;;;;;;5.03;2.53;;;16.80;90.00;;;;;;5007097;28;20026;-58
2022/09/20 14:35:51;;;;;;;3.47;2.38;;;17.30;89.40;;;;;;4999987;28;20558;-58
2022/09/20 14:38:37;;;;;;;3.05;2.45;;;17.60;89.00;;;;;;5000796;28;20438;-59
2022/09/20 14:41:27;;;;;;;4.45;2.00;;;17.80;86.20;;;;;;4998845;28;20066;-60
2022/09/20 14:44:25;;;;;;;2.95;1.90;;;17.90;82.20;;;;;;5007410;28;20026;-59
2022/09/20 14:47:15;;;;;;;4.28;2.10;;;18.20;80.20;;;;;;4999109;28;20014;-58
2022/09/20 14:50:02;;;;;;;5.00;2.13;;;18.40;81.50;;;;;;5013286;28;20544;-58
2022/09/20 14:53:11;;;;;;;4.95;2.45;;;18.80;81.60;;;;;;5001899;28;20237;-59
2022/09/20 14:56:06;;;;;;;5.35;2.67;;;18.70;82.30;;;;;;5013914;28;20045;-59
2022/09/20 14:59:03;;;;;;;4.93;2.67;;;18.30;83.80;;;;;;4984065;28;20031;-57
2022/09/20 15:02:10;;;;;;;3.72;2.53;;;18.40;83.70;;;;;;4994132;28;20031;-58
2022/09/20 15:04:59;;;;;;;3.72;2.33;;;18.70;81.00;;;;;;4994537;28;20094;-58
2022/09/20 15:07:45;;;;;;;3.85;2.63;;;18.70;81.40;;;;;;4998607;28;20026;-59
2022/09/20 15:10:31;;;;;;;5.20;2.47;;;19.00;80.90;;;;;;4995427;28;20038;-60
2022/09/20 15:13:18;;;;;;;4.18;2.60;;;19.60;79.10;;;;;;5006424;28;20045;-58
2022/09/20 15:16:04;;;;;;;4.43;2.78;;;20.60;78.40;;;;;;4994545;28;20018;-60
2022/09/20 15:18:50;;;;;;;4.70;2.60;;;20.90;76.40;;;;;;5009852;28;20509;-59
2022/09/20 15:21:36;;;;;;;2.60;2.40;;;21.20;76.10;;;;;;5013585;28;20026;-58
2022/09/20 15:24:22;;;;;;;5.38;2.45;;;22.00;74.00;;;;;;5001895;28;20030;-60
2022/09/20 15:27:10;;;;;;;2.80;2.15;;;22.80;71.90;;;;;;5025084;28;20027;-61
2022/09/20 15:29:56;;;;;;;6.93;2.30;;;23.00;70.30;;;;;;5002426;28;20117;-59
2022/09/20 15:32:43;;;;;;;4.32;2.13;;;23.30;67.40;;;;;;5007122;28;20057;-58
2022/09/20 15:35:29;;;;;;;3.25;2.10;;;22.80;67.50;;;;;;5023384;28;20049;-56